sensor_id;sensor_type;location;lat;lon;timestamp;P1;durP1;ratioP1;P2;durP2;ratioP2
17955;SDS011;27666;51.498;11.966;2022-09-17T00:00:53;3.73;;;1.90;;
17955;SDS011;27666;51.498;11.966;2022-09-17T00:03:44;4.40;;;1.70;;
17955;SDS011;27666;51.498;11.966;2022-09-17T00:06:34;3.83;;;1.40;;
17955;SDS011;27666;51.498;11.966;2022-09-17T00:09:21;2.87;;;1.90;;
17955;SDS011;27666;51.498;11.966;2022-09-17T00:12:08;6.80;;;1.80;;
17955;SDS011;27666;51.498;11.966;2022-09-17T00:14:54;2.93;;;1.37;;
17955;SDS011;27666;51.498;11.966;2022-09-17T00:17:41;1.50;;;1.13;;
17955;SDS011;27666;51.498;11.966;2022-09-17T00:20:29;4.40;;;1.33;;
17955;SDS011;27666;51.498;11.966;2022-09-17T00:23:15;1.83;;;1.30;;
17955;SDS011;27666;51.498;11.966;2022-09-17T00:26:03;2.97;;;1.50;;
17955;SDS011;27666;51.498;11.966;2022-09-17T00:28:51;1.50;;;1.30;;
17955;SDS011;27666;51.498;11.966;2022-09-17T00:31:38;1.50;;;1.40;;
17955;SDS011;27666;51.498;11.966;2022-09-17T00:34:25;3.07;;;1.20;;
17955;SDS011;27666;51.498;11.966;2022-09-17T00:37:13;2.43;;;1.50;;
17955;SDS011;27666;51.498;11.966;2022-09-17T00:40:00;4.57;;;1.33;;
17955;SDS011;27666;51.498;11.966;2022-09-17T00:42:47;5.10;;;1.40;;
17955;SDS011;27666;51.498;11.966;2022-09-17T00:45:33;2.70;;;1.30;;
17955;SDS011;27666;51.498;11.966;2022-09-17T00:48:20;3.57;;;1.57;;
17955;SDS011;27666;51.498;11.966;2022-09-17T00:51:06;3.87;;;1.10;;
17955;SDS011;27666;51.498;11.966;2022-09-17T00:53:55;3.47;;;1.30;;
17955;SDS011;27666;51.498;11.966;2022-09-17T00:56:42;1.73;;;1.20;;
17955;SDS011;27666;51.498;11.966;2022-09-17T00:59:28;1.87;;;1.37;;
17955;SDS011;27666;51.498;11.966;2022-09-17T01:02:15;3.17;;;1.57;;
17955;SDS011;27666;51.498;11.966;2022-09-17T01:05:02;2.53;;;1.33;;
17955;SDS011;27666;51.498;11.966;2022-09-17T01:07:55;3.80;;;1.70;;
17955;SDS011;27666;51.498;11.966;2022-09-17T01:10:51;1.40;;;1.30;;
17955;SDS011;27666;51.498;11.966;2022-09-17T01:13:54;4.73;;;1.70;;
17955;SDS011;27666;51.498;11.966;2022-09-17T01:16:50;2.70;;;1.43;;
17955;SDS011;27666;51.498;11.966;2022-09-17T01:19:53;1.43;;;1.23;;
17955;SDS011;27666;51.498;11.966;2022-09-17T01:23:31;3.60;;;1.50;;
17955;SDS011;27666;51.498;11.966;2022-09-17T01:26:49;5.20;;;2.40;;
17955;SDS011;27666;51.498;11.966;2022-09-17T01:30:02;1.40;;;1.30;;
17955;SDS011;27666;51.498;11.966;2022-09-17T01:33:09;0.90;;;0.90;;
17955;SDS011;27666;51.498;11.966;2022-09-17T01:36:02;2.63;;;1.37;;
17955;SDS011;27666;51.498;11.966;2022-09-17T01:39:00;3.23;;;1.40;;
17955;SDS011;27666;51.498;11.966;2022-09-17T01:41:52;1.00;;;1.00;;
17955;SDS011;27666;51.498;11.966;2022-09-17T01:44:46;5.83;;;1.40;;
17955;SDS011;27666;51.498;11.966;2022-09-17T01:47:38;1.33;;;1.07;;
17955;SDS011;27666;51.498;11.966;2022-09-17T01:50:31;2.10;;;1.27;;
17955;SDS011;27666;51.498;11.966;2022-09-17T01:53:23;2.20;;;1.60;;
17955;SDS011;27666;51.498;11.966;2022-09-17T01:56:14;2.30;;;1.30;;
17955;SDS011;27666;51.498;11.966;2022-09-17T01:59:10;2.60;;;1.00;;
17955;SDS011;27666;51.498;11.966;2022-09-17T02:02:02;3.77;;;1.17;;
17955;SDS011;27666;51.498;11.966;2022-09-17T02:04:54;2.40;;;1.20;;
17955;SDS011;27666;51.498;11.966;2022-09-17T02:07:46;2.13;;;1.07;;
17955;SDS011;27666;51.498;11.966;2022-09-17T02:10:38;1.17;;;1.10;;
17955;SDS011;27666;51.498;11.966;2022-09-17T02:13:31;4.73;;;1.30;;
17955;SDS011;27666;51.498;11.966;2022-09-17T02:16:23;1.30;;;1.20;;
17955;SDS011;27666;51.498;11.966;2022-09-17T02:19:12;1.73;;;1.17;;
17955;SDS011;27666;51.498;11.966;2022-09-17T02:22:05;0.93;;;0.93;;
17955;SDS011;27666;51.498;11.966;2022-09-17T02:25:00;0.80;;;0.80;;
17955;SDS011;27666;51.498;11.966;2022-09-17T02:27:51;1.20;;;1.07;;
17955;SDS011;27666;51.498;11.966;2022-09-17T02:30:47;0.77;;;0.77;;
17955;SDS011;27666;51.498;11.966;2022-09-17T02:33:34;1.10;;;0.77;;
17955;SDS011;27666;51.498;11.966;2022-09-17T02:36:22;2.87;;;1.30;;
17955;SDS011;27666;51.498;11.966;2022-09-17T02:39:09;1.50;;;1.03;;
17955;SDS011;27666;51.498;11.966;2022-09-17T02:42:01;2.13;;;0.93;;
17955;SDS011;27666;51.498;11.966;2022-09-17T02:44:56;1.87;;;0.80;;
17955;SDS011;27666;51.498;11.966;2022-09-17T02:51:35;5.17;;;3.23;;
17955;SDS011;27666;51.498;11.966;2022-09-17T02:54:35;2.73;;;1.77;;
17955;SDS011;27666;51.498;11.966;2022-09-17T02:57:29;1.87;;;1.00;;
17955;SDS011;27666;51.498;11.966;2022-09-17T03:00:22;0.70;;;0.70;;
17955;SDS011;27666;51.498;11.966;2022-09-17T03:03:11;0.60;;;0.60;;
17955;SDS011;27666;51.498;11.966;2022-09-17T03:06:02;2.50;;;1.20;;
17955;SDS011;27666;51.498;11.966;2022-09-17T03:08:50;2.57;;;1.30;;
17955;SDS011;27666;51.498;11.966;2022-09-17T03:11:37;1.00;;;1.00;;
17955;SDS011;27666;51.498;11.966;2022-09-17T03:14:24;1.27;;;1.20;;
17955;SDS011;27666;51.498;11.966;2022-09-17T03:17:11;0.70;;;0.70;;
17955;SDS011;27666;51.498;11.966;2022-09-17T03:19:58;0.87;;;0.87;;
17955;SDS011;27666;51.498;11.966;2022-09-17T03:22:45;1.90;;;0.90;;
17955;SDS011;27666;51.498;11.966;2022-09-17T03:25:31;2.13;;;0.70;;
17955;SDS011;27666;51.498;11.966;2022-09-17T03:28:18;1.60;;;1.10;;
17955;SDS011;27666;51.498;11.966;2022-09-17T03:31:05;4.97;;;1.50;;
17955;SDS011;27666;51.498;11.966;2022-09-17T03:33:52;0.80;;;0.80;;
17955;SDS011;27666;51.498;11.966;2022-09-17T03:36:38;0.60;;;0.60;;
17955;SDS011;27666;51.498;11.966;2022-09-17T03:39:25;2.23;;;0.97;;
17955;SDS011;27666;51.498;11.966;2022-09-17T03:42:11;1.67;;;0.73;;
17955;SDS011;27666;51.498;11.966;2022-09-17T03:44:58;0.77;;;0.77;;
17955;SDS011;27666;51.498;11.966;2022-09-17T03:47:45;1.37;;;0.63;;
17955;SDS011;27666;51.498;11.966;2022-09-17T03:50:32;1.20;;;1.03;;
17955;SDS011;27666;51.498;11.966;2022-09-17T03:53:18;1.50;;;1.17;;
17955;SDS011;27666;51.498;11.966;2022-09-17T03:56:05;0.97;;;0.97;;
17955;SDS011;27666;51.498;11.966;2022-09-17T03:58:55;1.10;;;1.10;;
17955;SDS011;27666;51.498;11.966;2022-09-17T04:01:42;1.10;;;1.10;;
17955;SDS011;27666;51.498;11.966;2022-09-17T04:04:30;2.90;;;1.13;;
17955;SDS011;27666;51.498;11.966;2022-09-17T04:07:17;2.37;;;1.00;;
17955;SDS011;27666;51.498;11.966;2022-09-17T04:10:03;1.10;;;1.00;;
17955;SDS011;27666;51.498;11.966;2022-09-17T04:12:50;1.30;;;1.20;;
17955;SDS011;27666;51.498;11.966;2022-09-17T04:15:37;1.43;;;1.23;;
17955;SDS011;27666;51.498;11.966;2022-09-17T04:18:24;1.47;;;1.10;;
17955;SDS011;27666;51.498;11.966;2022-09-17T04:21:11;2.03;;;1.03;;
17955;SDS011;27666;51.498;11.966;2022-09-17T04:23:58;1.20;;;1.20;;
17955;SDS011;27666;51.498;11.966;2022-09-17T04:26:44;2.33;;;1.40;;
17955;SDS011;27666;51.498;11.966;2022-09-17T04:29:31;1.70;;;1.60;;
17955;SDS011;27666;51.498;11.966;2022-09-17T04:32:17;2.70;;;1.33;;
17955;SDS011;27666;51.498;11.966;2022-09-17T04:35:04;1.80;;;1.60;;
17955;SDS011;27666;51.498;11.966;2022-09-17T04:37:52;2.93;;;1.77;;
17955;SDS011;27666;51.498;11.966;2022-09-17T04:40:39;2.77;;;1.83;;
17955;SDS011;27666;51.498;11.966;2022-09-17T04:43:26;2.37;;;1.60;;
17955;SDS011;27666;51.498;11.966;2022-09-17T04:46:13;1.83;;;1.40;;
17955;SDS011;27666;51.498;11.966;2022-09-17T04:49:00;3.17;;;1.50;;
17955;SDS011;27666;51.498;11.966;2022-09-17T04:51:46;2.40;;;1.70;;
17955;SDS011;27666;51.498;11.966;2022-09-17T04:54:34;4.27;;;1.60;;
17955;SDS011;27666;51.498;11.966;2022-09-17T04:57:20;6.80;;;1.90;;
17955;SDS011;27666;51.498;11.966;2022-09-17T05:00:09;2.90;;;1.73;;
17955;SDS011;27666;51.498;11.966;2022-09-17T05:02:56;3.40;;;1.70;;
17955;SDS011;27666;51.498;11.966;2022-09-17T05:05:42;2.87;;;1.60;;
17955;SDS011;27666;51.498;11.966;2022-09-17T05:08:29;2.83;;;2.07;;
17955;SDS011;27666;51.498;11.966;2022-09-17T05:11:17;7.07;;;2.30;;
17955;SDS011;27666;51.498;11.966;2022-09-17T05:14:03;4.20;;;2.03;;
17955;SDS011;27666;51.498;11.966;2022-09-17T05:16:50;5.87;;;2.07;;
17955;SDS011;27666;51.498;11.966;2022-09-17T05:19:36;7.63;;;2.27;;
17955;SDS011;27666;51.498;11.966;2022-09-17T05:22:22;4.40;;;2.60;;
17955;SDS011;27666;51.498;11.966;2022-09-17T05:25:09;11.57;;;4.60;;
17955;SDS011;27666;51.498;11.966;2022-09-17T05:27:58;12.87;;;3.10;;
17955;SDS011;27666;51.498;11.966;2022-09-17T05:30:45;11.70;;;3.60;;
17955;SDS011;27666;51.498;11.966;2022-09-17T05:33:31;12.80;;;3.37;;
17955;SDS011;27666;51.498;11.966;2022-09-17T05:36:18;7.23;;;3.23;;
17955;SDS011;27666;51.498;11.966;2022-09-17T05:39:05;14.73;;;3.30;;
17955;SDS011;27666;51.498;11.966;2022-09-17T05:41:51;15.20;;;3.83;;
17955;SDS011;27666;51.498;11.966;2022-09-17T05:44:39;8.27;;;2.97;;
17955;SDS011;27666;51.498;11.966;2022-09-17T05:47:25;17.50;;;8.10;;
17955;SDS011;27666;51.498;11.966;2022-09-17T05:50:12;12.10;;;5.20;;
17955;SDS011;27666;51.498;11.966;2022-09-17T05:53:02;10.53;;;3.40;;
17955;SDS011;27666;51.498;11.966;2022-09-17T05:55:49;10.60;;;3.13;;
17955;SDS011;27666;51.498;11.966;2022-09-17T05:58:36;8.80;;;3.27;;
17955;SDS011;27666;51.498;11.966;2022-09-17T06:01:24;11.43;;;3.03;;
17955;SDS011;27666;51.498;11.966;2022-09-17T06:04:10;14.67;;;2.90;;
17955;SDS011;27666;51.498;11.966;2022-09-17T06:06:57;12.80;;;3.33;;
17955;SDS011;27666;51.498;11.966;2022-09-17T06:09:43;6.00;;;2.40;;
17955;SDS011;27666;51.498;11.966;2022-09-17T06:12:30;5.43;;;2.37;;
17955;SDS011;27666;51.498;11.966;2022-09-17T06:15:19;9.10;;;2.40;;
17955;SDS011;27666;51.498;11.966;2022-09-17T06:18:07;7.67;;;2.70;;
17955;SDS011;27666;51.498;11.966;2022-09-17T06:20:54;8.43;;;2.83;;
17955;SDS011;27666;51.498;11.966;2022-09-17T06:23:41;15.43;;;5.75;;
17955;SDS011;27666;51.498;11.966;2022-09-17T06:26:27;13.23;;;4.75;;
17955;SDS011;27666;51.498;11.966;2022-09-17T06:29:14;6.70;;;2.67;;
17955;SDS011;27666;51.498;11.966;2022-09-17T06:32:00;7.57;;;2.88;;
17955;SDS011;27666;51.498;11.966;2022-09-17T06:34:48;12.30;;;2.78;;
17955;SDS011;27666;51.498;11.966;2022-09-17T06:37:35;8.90;;;2.55;;
17955;SDS011;27666;51.498;11.966;2022-09-17T06:40:23;5.53;;;2.45;;
17955;SDS011;27666;51.498;11.966;2022-09-17T06:43:10;11.32;;;2.97;;
17955;SDS011;27666;51.498;11.966;2022-09-17T06:45:57;7.07;;;2.28;;
17955;SDS011;27666;51.498;11.966;2022-09-17T06:48:44;8.15;;;2.40;;
17955;SDS011;27666;51.498;11.966;2022-09-17T06:51:32;9.32;;;2.88;;
17955;SDS011;27666;51.498;11.966;2022-09-17T06:54:18;9.20;;;2.67;;
17955;SDS011;27666;51.498;11.966;2022-09-17T06:57:04;10.98;;;2.75;;
17955;SDS011;27666;51.498;11.966;2022-09-17T06:59:51;7.00;;;2.28;;
17955;SDS011;27666;51.498;11.966;2022-09-17T07:02:37;6.18;;;2.30;;
17955;SDS011;27666;51.498;11.966;2022-09-17T07:05:24;10.18;;;2.78;;
17955;SDS011;27666;51.498;11.966;2022-09-17T07:08:12;4.55;;;2.30;;
17955;SDS011;27666;51.498;11.966;2022-09-17T07:10:59;9.02;;;2.35;;
17955;SDS011;27666;51.498;11.966;2022-09-17T07:13:45;10.13;;;2.20;;
17955;SDS011;27666;51.498;11.966;2022-09-17T07:16:32;4.47;;;1.70;;
17955;SDS011;27666;51.498;11.966;2022-09-17T07:19:20;4.90;;;1.77;;
17955;SDS011;27666;51.498;11.966;2022-09-17T07:22:07;5.68;;;1.73;;
17955;SDS011;27666;51.498;11.966;2022-09-17T07:24:54;7.47;;;2.25;;
17955;SDS011;27666;51.498;11.966;2022-09-17T07:27:41;7.35;;;2.22;;
17955;SDS011;27666;51.498;11.966;2022-09-17T07:30:27;5.97;;;1.90;;
17955;SDS011;27666;51.498;11.966;2022-09-17T07:33:13;10.70;;;2.92;;
17955;SDS011;27666;51.498;11.966;2022-09-17T07:36:01;4.03;;;1.90;;
17955;SDS011;27666;51.498;11.966;2022-09-17T07:38:49;7.07;;;2.15;;
17955;SDS011;27666;51.498;11.966;2022-09-17T07:41:36;5.70;;;2.33;;
17955;SDS011;27666;51.498;11.966;2022-09-17T07:44:23;8.20;;;2.38;;
17955;SDS011;27666;51.498;11.966;2022-09-17T07:47:09;5.70;;;1.80;;
17955;SDS011;27666;51.498;11.966;2022-09-17T07:49:56;5.65;;;2.17;;
17955;SDS011;27666;51.498;11.966;2022-09-17T07:52:44;6.70;;;2.75;;
17955;SDS011;27666;51.498;11.966;2022-09-17T07:55:31;7.18;;;2.35;;
17955;SDS011;27666;51.498;11.966;2022-09-17T07:58:19;8.60;;;2.58;;
17955;SDS011;27666;51.498;11.966;2022-09-17T08:01:06;4.35;;;1.85;;
17955;SDS011;27666;51.498;11.966;2022-09-17T08:03:55;9.88;;;2.05;;
17955;SDS011;27666;51.498;11.966;2022-09-17T08:06:41;6.05;;;2.08;;
17955;SDS011;27666;51.498;11.966;2022-09-17T08:09:31;5.60;;;2.08;;
17955;SDS011;27666;51.498;11.966;2022-09-17T08:12:18;5.25;;;1.65;;
17955;SDS011;27666;51.498;11.966;2022-09-17T08:15:08;6.50;;;2.75;;
17955;SDS011;27666;51.498;11.966;2022-09-17T08:17:55;11.15;;;2.90;;
17955;SDS011;27666;51.498;11.966;2022-09-17T08:20:41;18.00;;;7.60;;
17955;SDS011;27666;51.498;11.966;2022-09-17T08:23:28;7.82;;;2.90;;
17955;SDS011;27666;51.498;11.966;2022-09-17T08:26:16;8.13;;;2.63;;
17955;SDS011;27666;51.498;11.966;2022-09-17T08:29:04;8.82;;;2.80;;
17955;SDS011;27666;51.498;11.966;2022-09-17T08:31:52;4.95;;;2.25;;
17955;SDS011;27666;51.498;11.966;2022-09-17T08:34:38;3.60;;;1.80;;
17955;SDS011;27666;51.498;11.966;2022-09-17T08:37:25;8.25;;;2.13;;
17955;SDS011;27666;51.498;11.966;2022-09-17T08:40:14;7.68;;;2.75;;
17955;SDS011;27666;51.498;11.966;2022-09-17T08:43:07;5.80;;;1.67;;
17955;SDS011;27666;51.498;11.966;2022-09-17T08:46:01;6.57;;;2.72;;
17955;SDS011;27666;51.498;11.966;2022-09-17T08:48:50;6.50;;;2.13;;
17955;SDS011;27666;51.498;11.966;2022-09-17T08:51:47;6.35;;;2.47;;
17955;SDS011;27666;51.498;11.966;2022-09-17T08:54:46;5.13;;;2.90;;
17955;SDS011;27666;51.498;11.966;2022-09-17T08:57:36;8.63;;;2.20;;
17955;SDS011;27666;51.498;11.966;2022-09-17T09:00:32;5.47;;;2.15;;
17955;SDS011;27666;51.498;11.966;2022-09-17T09:03:29;13.25;;;2.58;;
17955;SDS011;27666;51.498;11.966;2022-09-17T09:06:28;6.85;;;2.63;;
17955;SDS011;27666;51.498;11.966;2022-09-17T09:09:18;8.38;;;2.80;;
17955;SDS011;27666;51.498;11.966;2022-09-17T09:12:09;12.98;;;4.38;;
17955;SDS011;27666;51.498;11.966;2022-09-17T09:15:04;16.60;;;5.95;;
17955;SDS011;27666;51.498;11.966;2022-09-17T09:18:00;8.57;;;3.97;;
17955;SDS011;27666;51.498;11.966;2022-09-17T09:20:56;7.72;;;2.95;;
17955;SDS011;27666;51.498;11.966;2022-09-17T09:23:54;5.57;;;2.00;;
17955;SDS011;27666;51.498;11.966;2022-09-17T09:26:43;6.50;;;2.30;;
17955;SDS011;27666;51.498;11.966;2022-09-17T09:29:34;7.97;;;2.00;;
17955;SDS011;27666;51.498;11.966;2022-09-17T09:32:37;5.00;;;2.10;;
17955;SDS011;27666;51.498;11.966;2022-09-17T09:35:38;6.82;;;2.05;;
17955;SDS011;27666;51.498;11.966;2022-09-17T09:38:28;5.30;;;2.28;;
17955;SDS011;27666;51.498;11.966;2022-09-17T09:41:21;7.43;;;2.10;;
17955;SDS011;27666;51.498;11.966;2022-09-17T09:44:12;6.72;;;2.20;;
17955;SDS011;27666;51.498;11.966;2022-09-17T09:47:03;8.93;;;2.45;;
17955;SDS011;27666;51.498;11.966;2022-09-17T09:50:06;6.65;;;2.05;;
17955;SDS011;27666;51.498;11.966;2022-09-17T09:53:05;9.80;;;3.90;;
17955;SDS011;27666;51.498;11.966;2022-09-17T09:56:10;13.60;;;5.22;;
17955;SDS011;27666;51.498;11.966;2022-09-17T09:59:13;5.10;;;2.45;;
17955;SDS011;27666;51.498;11.966;2022-09-17T10:02:00;4.15;;;2.40;;
17955;SDS011;27666;51.498;11.966;2022-09-17T10:04:48;7.43;;;2.47;;
17955;SDS011;27666;51.498;11.966;2022-09-17T10:07:41;4.05;;;1.60;;
17955;SDS011;27666;51.498;11.966;2022-09-17T10:10:28;8.77;;;2.78;;
17955;SDS011;27666;51.498;11.966;2022-09-17T10:13:16;4.53;;;2.33;;
17955;SDS011;27666;51.498;11.966;2022-09-17T10:16:14;5.78;;;2.10;;
17955;SDS011;27666;51.498;11.966;2022-09-17T10:19:10;3.53;;;1.83;;
17955;SDS011;27666;51.498;11.966;2022-09-17T10:21:59;3.95;;;2.35;;
17955;SDS011;27666;51.498;11.966;2022-09-17T10:25:23;7.63;;;2.30;;
17955;SDS011;27666;51.498;11.966;2022-09-17T10:28:30;7.78;;;2.13;;
17955;SDS011;27666;51.498;11.966;2022-09-17T10:31:29;6.82;;;2.45;;
17955;SDS011;27666;51.498;11.966;2022-09-17T10:34:32;3.67;;;2.08;;
17955;SDS011;27666;51.498;11.966;2022-09-17T10:37:30;11.18;;;5.30;;
17955;SDS011;27666;51.498;11.966;2022-09-17T10:40:23;13.85;;;5.55;;
17955;SDS011;27666;51.498;11.966;2022-09-17T10:43:20;9.65;;;2.63;;
17955;SDS011;27666;51.498;11.966;2022-09-17T10:46:10;9.45;;;2.78;;
17955;SDS011;27666;51.498;11.966;2022-09-17T10:49:04;4.55;;;2.08;;
17955;SDS011;27666;51.498;11.966;2022-09-17T10:52:02;7.35;;;2.45;;
17955;SDS011;27666;51.498;11.966;2022-09-17T10:58:10;6.70;;;2.22;;
17955;SDS011;27666;51.498;11.966;2022-09-17T11:01:05;9.40;;;2.70;;
17955;SDS011;27666;51.498;11.966;2022-09-17T11:04:20;18.67;;;9.23;;
17955;SDS011;27666;51.498;11.966;2022-09-17T11:10:26;6.20;;;2.25;;
17955;SDS011;27666;51.498;11.966;2022-09-17T11:13:21;6.28;;;2.78;;
17955;SDS011;27666;51.498;11.966;2022-09-17T11:16:20;8.75;;;2.08;;
17955;SDS011;27666;51.498;11.966;2022-09-17T11:19:18;8.70;;;1.80;;
17955;SDS011;27666;51.498;11.966;2022-09-17T11:22:11;6.70;;;1.98;;
17955;SDS011;27666;51.498;11.966;2022-09-17T11:25:13;5.00;;;1.92;;
17955;SDS011;27666;51.498;11.966;2022-09-17T11:28:12;4.55;;;2.08;;
17955;SDS011;27666;51.498;11.966;2022-09-17T11:31:13;7.40;;;2.45;;
17955;SDS011;27666;51.498;11.966;2022-09-17T11:34:20;3.47;;;1.98;;
17955;SDS011;27666;51.498;11.966;2022-09-17T11:37:12;7.43;;;2.20;;
17955;SDS011;27666;51.498;11.966;2022-09-17T11:40:05;5.35;;;1.80;;
17955;SDS011;27666;51.498;11.966;2022-09-17T11:42:59;4.00;;;1.83;;
17955;SDS011;27666;51.498;11.966;2022-09-17T11:45:53;4.75;;;2.03;;
17955;SDS011;27666;51.498;11.966;2022-09-17T11:48:46;2.75;;;1.70;;
17955;SDS011;27666;51.498;11.966;2022-09-17T11:51:38;6.28;;;2.03;;
17955;SDS011;27666;51.498;11.966;2022-09-17T11:54:31;6.10;;;2.30;;
17955;SDS011;27666;51.498;11.966;2022-09-17T11:57:24;9.50;;;2.75;;
17955;SDS011;27666;51.498;11.966;2022-09-17T12:00:13;6.70;;;2.22;;
17955;SDS011;27666;51.498;11.966;2022-09-17T12:03:03;4.47;;;2.03;;
17955;SDS011;27666;51.498;11.966;2022-09-17T12:06:01;9.07;;;2.20;;
17955;SDS011;27666;51.498;11.966;2022-09-17T12:08:54;8.20;;;2.45;;
17955;SDS011;27666;51.498;11.966;2022-09-17T12:11:46;12.45;;;4.75;;
17955;SDS011;27666;51.498;11.966;2022-09-17T12:14:38;8.48;;;3.10;;
17955;SDS011;27666;51.498;11.966;2022-09-17T12:17:33;4.45;;;1.63;;
17955;SDS011;27666;51.498;11.966;2022-09-17T12:20:27;3.65;;;1.70;;
17955;SDS011;27666;51.498;11.966;2022-09-17T12:23:19;6.28;;;2.63;;
17955;SDS011;27666;51.498;11.966;2022-09-17T12:26:25;4.22;;;1.88;;
17955;SDS011;27666;51.498;11.966;2022-09-17T12:29:35;7.07;;;1.88;;
17955;SDS011;27666;51.498;11.966;2022-09-17T12:32:46;4.60;;;1.75;;
17955;SDS011;27666;51.498;11.966;2022-09-17T12:35:51;5.20;;;2.10;;
17955;SDS011;27666;51.498;11.966;2022-09-17T12:39:00;4.53;;;1.90;;
17955;SDS011;27666;51.498;11.966;2022-09-17T12:42:11;5.18;;;2.25;;
17955;SDS011;27666;51.498;11.966;2022-09-17T12:45:14;3.47;;;2.08;;
17955;SDS011;27666;51.498;11.966;2022-09-17T12:48:24;2.88;;;1.70;;
17955;SDS011;27666;51.498;11.966;2022-09-17T12:51:31;4.18;;;2.30;;
17955;SDS011;27666;51.498;11.966;2022-09-17T12:54:41;4.40;;;1.88;;
17955;SDS011;27666;51.498;11.966;2022-09-17T12:57:41;6.57;;;1.65;;
17955;SDS011;27666;51.498;11.966;2022-09-17T13:00:34;6.82;;;1.60;;
17955;SDS011;27666;51.498;11.966;2022-09-17T13:03:25;7.25;;;1.80;;
17955;SDS011;27666;51.498;11.966;2022-09-17T13:12:45;9.38;;;1.98;;
17955;SDS011;27666;51.498;11.966;2022-09-17T13:15:38;3.92;;;1.67;;
17955;SDS011;27666;51.498;11.966;2022-09-17T13:18:33;8.32;;;2.40;;
17955;SDS011;27666;51.498;11.966;2022-09-17T13:21:33;10.30;;;2.13;;
17955;SDS011;27666;51.498;11.966;2022-09-17T13:24:26;6.60;;;1.88;;
17955;SDS011;27666;51.498;11.966;2022-09-17T13:27:20;5.20;;;2.03;;
17955;SDS011;27666;51.498;11.966;2022-09-17T13:30:10;7.30;;;2.40;;
17955;SDS011;27666;51.498;11.966;2022-09-17T13:32:59;6.65;;;2.20;;
17955;SDS011;27666;51.498;11.966;2022-09-17T13:35:48;2.88;;;1.80;;
17955;SDS011;27666;51.498;11.966;2022-09-17T13:38:39;5.50;;;1.60;;
17955;SDS011;27666;51.498;11.966;2022-09-17T13:41:27;7.95;;;2.80;;
17955;SDS011;27666;51.498;11.966;2022-09-17T13:44:20;8.00;;;1.88;;
17955;SDS011;27666;51.498;11.966;2022-09-17T13:47:18;4.22;;;2.20;;
17955;SDS011;27666;51.498;11.966;2022-09-17T13:50:09;3.30;;;1.77;;
17955;SDS011;27666;51.498;11.966;2022-09-17T13:53:15;5.57;;;1.98;;
17955;SDS011;27666;51.498;11.966;2022-09-17T13:56:26;4.05;;;1.98;;
17955;SDS011;27666;51.498;11.966;2022-09-17T13:59:16;6.25;;;2.13;;
17955;SDS011;27666;51.498;11.966;2022-09-17T14:05:34;6.10;;;2.38;;
17955;SDS011;27666;51.498;11.966;2022-09-17T14:08:29;6.88;;;2.22;;
17955;SDS011;27666;51.498;11.966;2022-09-17T14:11:39;8.48;;;2.42;;
17955;SDS011;27666;51.498;11.966;2022-09-17T14:14:38;2.45;;;1.38;;
17955;SDS011;27666;51.498;11.966;2022-09-17T14:17:48;6.80;;;1.92;;
17955;SDS011;27666;51.498;11.966;2022-09-17T14:20:38;5.47;;;1.50;;
17955;SDS011;27666;51.498;11.966;2022-09-17T14:23:26;1.65;;;1.50;;
17955;SDS011;27666;51.498;11.966;2022-09-17T14:26:17;4.65;;;2.08;;
17955;SDS011;27666;51.498;11.966;2022-09-17T14:29:27;3.78;;;1.50;;
17955;SDS011;27666;51.498;11.966;2022-09-17T14:32:28;3.85;;;1.50;;
17955;SDS011;27666;51.498;11.966;2022-09-17T14:35:21;2.83;;;1.52;;
17955;SDS011;27666;51.498;11.966;2022-09-17T14:38:15;4.13;;;2.00;;
17955;SDS011;27666;51.498;11.966;2022-09-17T14:41:15;2.20;;;1.35;;
17955;SDS011;27666;51.498;11.966;2022-09-17T14:44:08;4.75;;;1.77;;
17955;SDS011;27666;51.498;11.966;2022-09-17T14:47:04;6.78;;;2.28;;
17955;SDS011;27666;51.498;11.966;2022-09-17T14:50:10;2.40;;;1.38;;
17955;SDS011;27666;51.498;11.966;2022-09-17T14:53:11;5.20;;;1.60;;
17955;SDS011;27666;51.498;11.966;2022-09-17T14:56:06;3.85;;;1.45;;
17955;SDS011;27666;51.498;11.966;2022-09-17T14:58:59;3.72;;;1.80;;
17955;SDS011;27666;51.498;11.966;2022-09-17T15:01:48;4.50;;;1.77;;
17955;SDS011;27666;51.498;11.966;2022-09-17T15:04:36;4.30;;;1.90;;
17955;SDS011;27666;51.498;11.966;2022-09-17T15:07:30;5.18;;;2.08;;
17955;SDS011;27666;51.498;11.966;2022-09-17T15:10:19;4.68;;;1.80;;
17955;SDS011;27666;51.498;11.966;2022-09-17T15:13:10;7.80;;;1.60;;
17955;SDS011;27666;51.498;11.966;2022-09-17T15:16:04;5.75;;;1.80;;
17955;SDS011;27666;51.498;11.966;2022-09-17T15:19:00;6.40;;;2.83;;
17955;SDS011;27666;51.498;11.966;2022-09-17T15:22:02;10.00;;;2.67;;
17955;SDS011;27666;51.498;11.966;2022-09-17T15:24:56;5.65;;;1.90;;
17955;SDS011;27666;51.498;11.966;2022-09-17T15:27:50;4.65;;;1.90;;
17955;SDS011;27666;51.498;11.966;2022-09-17T15:30:49;5.47;;;1.50;;
17955;SDS011;27666;51.498;11.966;2022-09-17T15:33:42;7.13;;;2.15;;
17955;SDS011;27666;51.498;11.966;2022-09-17T15:36:33;5.28;;;1.60;;
17955;SDS011;27666;51.498;11.966;2022-09-17T15:39:27;3.97;;;1.48;;
17955;SDS011;27666;51.498;11.966;2022-09-17T15:42:21;4.07;;;1.80;;
17955;SDS011;27666;51.498;11.966;2022-09-17T15:45:15;3.28;;;1.52;;
17955;SDS011;27666;51.498;11.966;2022-09-17T15:48:04;3.05;;;1.40;;
17955;SDS011;27666;51.498;11.966;2022-09-17T15:50:56;4.53;;;1.70;;
17955;SDS011;27666;51.498;11.966;2022-09-17T15:53:49;5.55;;;1.90;;
17955;SDS011;27666;51.498;11.966;2022-09-17T15:56:39;3.28;;;1.75;;
17955;SDS011;27666;51.498;11.966;2022-09-17T15:59:34;3.75;;;2.15;;
17955;SDS011;27666;51.498;11.966;2022-09-17T16:02:28;8.85;;;1.95;;
17955;SDS011;27666;51.498;11.966;2022-09-17T16:08:48;3.78;;;1.80;;
17955;SDS011;27666;51.498;11.966;2022-09-17T16:11:52;8.25;;;2.55;;
17955;SDS011;27666;51.498;11.966;2022-09-17T16:14:48;3.25;;;1.67;;
17955;SDS011;27666;51.498;11.966;2022-09-17T16:17:44;8.97;;;2.10;;
17955;SDS011;27666;51.498;11.966;2022-09-17T16:20:33;1.95;;;1.60;;
17955;SDS011;27666;51.498;11.966;2022-09-17T16:23:19;4.57;;;1.50;;
17955;SDS011;27666;51.498;11.966;2022-09-17T16:26:08;3.40;;;1.48;;
17955;SDS011;27666;51.498;11.966;2022-09-17T16:28:59;4.10;;;1.65;;
17955;SDS011;27666;51.498;11.966;2022-09-17T16:31:50;3.15;;;1.40;;
17955;SDS011;27666;51.498;11.966;2022-09-17T16:34:37;3.17;;;1.67;;
17955;SDS011;27666;51.498;11.966;2022-09-17T16:37:24;5.13;;;2.10;;
17955;SDS011;27666;51.498;11.966;2022-09-17T16:40:11;3.63;;;1.57;;
17955;SDS011;27666;51.498;11.966;2022-09-17T16:42:58;4.50;;;1.77;;
17955;SDS011;27666;51.498;11.966;2022-09-17T16:45:56;4.27;;;2.00;;
17955;SDS011;27666;51.498;11.966;2022-09-17T16:48:46;1.77;;;1.33;;
17955;SDS011;27666;51.498;11.966;2022-09-17T16:51:35;8.63;;;2.10;;
17955;SDS011;27666;51.498;11.966;2022-09-17T16:54:21;5.22;;;2.20;;
17955;SDS011;27666;51.498;11.966;2022-09-17T16:57:08;2.95;;;1.92;;
17955;SDS011;27666;51.498;11.966;2022-09-17T16:59:54;4.75;;;1.95;;
17955;SDS011;27666;51.498;11.966;2022-09-17T17:02:41;2.07;;;1.70;;
17955;SDS011;27666;51.498;11.966;2022-09-17T17:05:29;4.68;;;1.92;;
17955;SDS011;27666;51.498;11.966;2022-09-17T17:08:21;3.33;;;1.40;;
17955;SDS011;27666;51.498;11.966;2022-09-17T17:11:08;4.73;;;1.80;;
17955;SDS011;27666;51.498;11.966;2022-09-17T17:13:54;2.37;;;1.80;;
17955;SDS011;27666;51.498;11.966;2022-09-17T17:16:41;3.37;;;2.00;;
17955;SDS011;27666;51.498;11.966;2022-09-17T17:19:27;3.80;;;1.80;;
17955;SDS011;27666;51.498;11.966;2022-09-17T17:22:16;7.73;;;2.00;;